Weather observations for the past three days for
Tulsa - Jones Jr. Airport
Metric (Imperial)
Date Time (cdt) Wind (kph) Vis. (km) Weather Sky Cond. Temperature (ºC) Relative Humidity Wind Chill (°C) Heat Index (°C) Pressure Precipitation (cm)
Air Dwpt 6 hour altimeter (cm) sea level (mb) 1 hr 3 hr 6 hr
Max. Min.
02 18:53 Calm 16.09 Fair CLR 21.1 3.3 22.8 20 31% 76.43 1019.6
02 17:53 Vrbl 9 16.09 Fair CLR 22.2 3.3 29% 76.43 1019.6
02 16:53 Vrbl 9 16.09 A Few Clouds FEW075 22.2 4.4 31% 76.43 1019.7
02 15:53 Vrbl 7 16.09 Fair CLR 21.7 4.4 32% 76.5 1020.4
02 14:53 NE 13 G 33 16.09 Fair CLR 21.7 5.6 35% 76.53 1021.1
02 13:53 N 6 16.09 Fair CLR 20.6 5 36% 76.58 1021.6
02 12:53 Calm 16.09 Fair CLR 20.6 7.2 20.6 9.4 42% 76.63 1022.3
02 11:53 NE 13 16.09 Fair CLR 19.4 7.2 45% 76.66 1022.8
02 10:53 NE 13 16.09 Fair CLR 18.3 6.7 47% 76.66 1022.6
02 09:53 N 13 16.09 Fair CLR 16.7 7.2 54% 76.66 1022.8
02 08:53 N 13 16.09 Fair CLR 15 7.8 62% 76.63 1022.5
02 07:53 Calm 16.09 A Few Clouds FEW110 13.3 8.3 72% 76.61 1022.0
02 06:53 Calm 16.09 Partly Cloudy SCT085 10 7.2 13.9 8.3 83% 76.53 1021.0
02 05:53 Calm 16.09 Mostly Cloudy BKN110 11.1 6.7 75% 76.5 1020.6
02 04:53 NW 6 16.09 Mostly Cloudy BKN075 BKN095 13.3 5.6 60% 76.5 1020.6
02 03:53 Calm 16.09 Overcast OVC090 12.2 6.1 67% 76.5 1020.6
02 02:53 N 7 16.09 Overcast OVC095 10 7.2 83% 9 76.43 1019.8
02 01:53 Calm 16.09 Overcast OVC095 9.4 7.2 86% 76.43 1019.7
02 00:53 Calm 16.09 Fair CLR 8.9 6.1 18.9 8.9 83% 76.43 1019.7
01 23:53 Calm 16.09 Fair CLR 10 6.1 77% 76.43 1019.7
01 22:53 Calm 16.09 Fair CLR 11.1 6.1 72% 76.45 1020.0
01 21:53 Calm 16.09 Fair CLR 12.2 5.6 64% 76.43 1019.8
01 20:53 Calm 16.09 Fair CLR 13.3 4.4 55% 76.38 1019.0
01 19:53 Calm 16.09 Fair CLR 16.1 4.4 46% 76.33 1018.3
01 18:53 N 17 16.09 Fair CLR 18.9 1.1 21.1 18.9 30% 76.28 1017.8
01 17:53 N 15 G 33 16.09 Fair CLR 19.4 1.1 30% 76.28 1017.6
01 16:53 N 11 G 28 16.09 Fair CLR 20 1.7 30% 76.25 1017.4
01 15:53 N 22 G 39 16.09 Fair CLR 20.6 3.3 32% 76.28 1017.7
01 14:53 N 13 G 31 16.09 Fair CLR 20 3.3 33% 76.38 1018.9
01 13:53 N 15 16.09 A Few Clouds FEW060 21.1 6.7 39% 76.43 1019.6
01 12:53 NE 13 16.09 A Few Clouds FEW060 20 6.7 20 11.1 42% 76.48 1020.3
01 11:53 E 7 16.09 Fair CLR 19.4 6.7 44% 76.5 1020.6
01 10:53 NE 19 16.09 Fair CLR 17.8 6.7 48% 76.5 1020.6
01 09:53 E 11 16.09 Fair CLR 15.6 6.1 53% 76.48 1020.3
01 08:53 NE 7 16.09 Fair CLR 14.4 8.3 67% 76.45 1019.9
01 07:53 N 7 16.09 Fair CLR 12.2 8.9 80% 76.45 1019.9
01 06:53 Calm 16.09 Fair CLR 11.1 8.3 12.2 8.9 83% 76.4 1019.3
01 05:53 NE 11 16.09 Fair CLR 11.1 8.3 83% 76.35 1018.7
01 04:53 N 9 16.09 Fair CLR 11.7 7.8 77% 76.38 1018.9
01 03:53 Calm 16.09 Fair CLR 10.6 8.9 89% 76.35 1018.5
01 02:53 Calm 16.09 Fair CLR 10 8.3 89% 76.33 1018.5
01 01:53 Calm 16.09 Fair CLR 11.1 8.9 86% 76.38 1018.9
01 00:53 Calm 16.09 Fair CLR 11.7 8.3 19.4 11.7 80% 76.35 1018.8
30 23:53 Calm 16.09 Fair CLR 11.7 8.3 80% 76.35 1018.7
30 22:53 Calm 16.09 Fair CLR 12.8 8.3 74% 76.35 1018.9
30 21:53 N 6 16.09 Fair CLR 14.4 7.8 65% 76.33 1018.5
30 20:53 N 11 16.09 Fair CLR 16.7 6.1 50% 76.28 1017.5
30 19:53 N 13 16.09 Fair CLR 17.8 5 43% 76.23 1016.9
30 18:53 N 15 16.09 Fair CLR 19.4 6.1 20.6 17.2 42% 76.17 1016.4
30 17:53 NE 15 16.09 Fair CLR 20 6.7 42% 76.17 1016.2
30 16:53 NE 19 16.09 Fair CLR 20.6 5.6 38% 76.17 1016.4
30 15:53 Vrbl 11 16.09 Fair CLR 20.6 4.4 35% 76.23 1016.8
30 14:53 Vrbl 6 16.09 Fair CLR 20 6.1 40% 76.28 1017.8
30 13:53 Calm 16.09 Fair CLR 18.9 7.2 47% 76.3 1018.1
30 12:53 Vrbl 9 16.09 A Few Clouds FEW002 17.2 8.9 17.2 10 58% 76.35 1018.8
30 11:53 N 7 16.09 Fair CLR 15.6 7.8 60% 76.45 1019.9
30 10:53 NE 9 16.09 Fair CLR 15 7.8 62% 76.45 1020.1
30 09:53 E 11 16.09 Fair CLR 13.9 7.2 64% 76.4 1019.4
30 08:53 Calm 16.09 Fair CLR 13.3 7.2 67% 76.4 1019.5
30 07:53 NE 7 16.09 Fair CLR 12.2 6.7 69% 76.4 1019.3
30 06:53 NE 9 16.09 Fair CLR 10 6.1 12.2 10 77% 9 76.35 1018.8
30 05:53 NE 11 16.09 Fair CLR 10.6 6.1 74% 76.35 1018.8
30 04:53 NE 11 16.09 Fair CLR 11.7 6.1 69% 76.35 1018.5
30 03:53 Calm 16.09 Fair CLR 11.1 7.2 77% 76.35 1018.5
30 02:53 NE 7 16.09 Fair CLR 11.1 7.2 77% 76.35 1018.5
30 01:53 NE 11 16.09 Fair CLR 11.7 7.2 74% 76.35 1018.8
30 00:53 NE 7 16.09 Fair CLR 12.2 7.2 17.8 12.2 72% 76.35 1018.8
29 23:53 N 13 16.09 Fair CLR 13.3 7.8 70% 76.35 1018.8
29 22:53 NE 11 16.09 Fair CLR 13.9 7.8 67% 76.35 1018.7
29 21:53 NE 13 16.09 Fair CLR 14.4 7.8 65% 76.35 1018.6
29 20:53 N 15 16.09 Fair CLR 15.6 7.8 60% 76.28 1017.9
29 19:53 NE 19 16.09 Mostly Cloudy BKN120 17.2 7.8 54% 76.23 1017.2
Date Time (cdt) Wind (kph) Vis. (km) Weather Sky Cond. Air Dwpt Max. Min. Relative Humidity Wind Chill (°C) Heat Index (°C) altimeter (cm) sea level (mb) 1 hr 3 hr 6 hr
6 hour
Temperature (ºC) Pressure Precipitation (cm)